FW2438 Weather Reports


Display with metric or nautical units.
time (UTC)temp
F
wind
direction
speed
MPH
gust
MPH
rain 1hr
in
rain 24hr
in
rain mn
in
humidity
%
barometer
mb
20200221112022 64 336 12.0 20.0 0.01 0.01 0.01 91 1016.5
20200221111122 64 336 11.0 22.0 0.01 0.01 0.01 91 1016.5
20200221110222 65 333 9.0 17.0 0.01 0.01 0.01 91 1016.4
20200221105322 65 332 10.0 25.0 0.00 0.00 0.00 91 1016.4
20200221104422 66 340 10.0 19.0 0.00 0.00 0.00 91 1016.2
20200221103522 66 341 9.0 18.0 0.00 0.00 0.00 90 1016.1
20200221102622 66 347 9.0 16.0 0.00 0.00 0.00 90 1016.0
20200221101722 67 345 7.0 15.0 0.00 0.00 0.00 90 1015.9
20200221100822 66 345 5.0 11.0 0.00 0.00 0.00 90 1015.9
20200221095922 67 342 5.0 9.0 0.00 0.00 0.00 90 1015.8
20200221095022 67 339 5.0 14.0 0.00 0.00 0.00 90 1015.8
20200221094122 67 348 5.0 9.0 0.00 0.00 0.00 90 1015.7
20200221093222 67 343 6.0 12.0 0.00 0.00 0.00 90 1015.8
20200221092322 67 347 5.0 10.0 0.00 0.00 0.00 89 1015.8
20200221091422 67 344 6.0 11.0 0.00 0.00 0.00 89 1015.7
20200221090522 68 347 5.0 10.0 0.00 0.00 0.00 89 1015.8
20200221085622 68 350 5.0 11.0 0.00 0.00 0.00 89 1015.9
20200221084722 68 350 5.0 12.0 0.00 0.00 0.00 89 1015.8
20200221083822 68 343 6.0 12.0 0.00 0.00 0.00 89 1015.9
20200221082922 69 327 5.0 11.0 0.00 0.00 0.00 89 1016.0
20200221082022 70 318 2.0 6.0 0.00 0.00 0.00 90 1016.0
20200221081122 70 313 0.0 3.0 0.00 0.00 0.00 89 1015.9
20200221080222 70 0 0.0 0.0 0.00 0.00 0.00 89 1015.7
20200221075322 70 0 0.0 0.0 0.00 0.00 0.00 89 1015.8
20200221074422 70 0 0.0 0.0 0.00 0.00 0.00 89 1015.9
20200221073521 70 308 0.0 2.0 0.00 0.00 0.00 89 1016.0
20200221072621 70 309 0.0 3.0 0.00 0.00 0.00 89 1016.0
20200221071722 70 308 0.0 2.0 0.00 0.00 0.00 88 1016.1
20200221070821 71 0 0.0 0.0 0.00 0.00 0.00 88 1016.3
20200221065922 71 309 0.0 3.0 0.00 0.00 0.00 88 1016.3
20200221065021 71 296 1.0 3.0 0.00 0.00 0.00 88 1016.4
20200221064121 71 275 2.0 4.0 0.00 0.00 0.00 88 1016.5
20200221063221 71 273 2.0 4.0 0.00 0.00 0.00 87 1016.6
20200221062321 71 281 2.0 8.0 0.00 0.00 0.00 87 1016.7
20200221060525 72 314 0.0 3.0 0.00 0.00 0.00 86 1016.8
20200221055625 72 309 2.0 5.0 0.00 0.00 0.00 85 1016.8
20200221054725 72 306 2.0 5.0 0.00 0.00 0.00 85 1017.1
20200221053825 72 306 2.0 6.0 0.00 0.00 0.00 85 1017.1
20200221052925 72 297 3.0 8.0 0.00 0.00 0.00 85 1017.1
20200221052026 72 292 3.0 12.0 0.00 0.00 0.00 84 1017.3
20200221051125 72 289 5.0 13.0 0.00 0.00 0.00 84 1017.2
20200221050225 73 286 5.0 10.0 0.00 0.00 0.00 83 1017.2
20200221045325 73 277 6.0 12.0 0.00 0.00 0.00 83 1017.3
20200221044425 73 271 5.0 11.0 0.00 0.00 0.00 82 1017.2
20200221043525 73 270 5.0 11.0 0.00 0.00 0.00 82 1017.2
20200221042625 73 271 5.0 10.0 0.00 0.00 0.00 81 1017.3
20200221041725 74 271 7.0 12.0 0.00 0.00 0.00 81 1017.2
20200221040825 74 275 6.0 12.0 0.00 0.00 0.00 80 1017.1
20200221035925 74 279 6.0 13.0 0.00 0.00 0.00 79 1017.2
20200221035025 74 280 6.0 11.0 0.00 0.00 0.00 80 1017.4
20200221034125 75 276 7.0 13.0 0.00 0.00 0.00 79 1017.3
20200221033226 75 269 7.0 13.0 0.00 0.00 0.00 79 1017.2
20200221032325 75 271 6.0 13.0 0.00 0.00 0.00 79 1017.2
20200221031425 75 270 8.0 13.0 0.00 0.00 0.00 79 1017.2
20200221030525 76 272 8.0 13.0 0.00 0.00 0.00 78 1017.2
20200221025625 76 270 8.0 13.0 0.00 0.00 0.00 78 1017.1
20200221024725 76 271 7.0 13.0 0.00 0.00 0.00 78 1017.0
20200221023825 76 271 8.0 13.0 0.00 0.00 0.00 78 1017.0
20200221022925 77 269 7.0 13.0 0.00 0.00 0.00 78 1016.9
20200221022025 77 270 8.0 13.0 0.00 0.00 0.00 77 1016.9
20200221021125 78 268 8.0 13.0 0.00 0.00 0.00 77 1016.9
20200221020226 78 268 8.0 14.0 0.00 0.00 0.00 77 1016.8
20200221015325 78 267 8.0 13.0 0.00 0.00 0.00 77 1016.7
20200221014425 78 267 8.0 13.0 0.00 0.00 0.00 77 1016.7
20200221013525 78 270 8.0 14.0 0.00 0.00 0.00 77 1016.6
20200221012625 78 269 9.0 16.0 0.00 0.00 0.00 77 1016.6
20200221011725 78 273 8.0 14.0 0.00 0.00 0.00 77 1016.6
20200221010825 78 267 7.0 13.0 0.00 0.00 0.00 79 1016.5
20200221005925 78 262 6.0 11.0 0.00 0.00 0.00 80 1016.3
20200221005025 78 252 6.0 10.0 0.00 0.00 0.00 81 1016.3
20200221004125 78 255 7.0 13.0 0.00 0.00 0.00 80 1016.2
20200221003225 78 248 6.0 10.0 0.00 0.00 0.00 80 1016.1
20200221002325 78 245 6.0 11.0 0.00 0.00 0.00 79 1015.9
20200221001425 78 249 3.0 7.0 0.00 0.00 0.00 80 1015.9
20200221000525 78 242 1.0 6.0 0.00 0.00 0.00 82 1015.8
20200220235625 78 171 0.0 1.0 0.00 0.00 0.00 83 1015.6
20200220234725 78 0 0.0 0.0 0.00 0.00 0.00 82 1015.6
20200220233826 78 0 0.0 0.0 0.00 0.00 0.00 82 1015.5
20200220232925 78 172 0.0 2.0 0.00 0.00 0.00 82 1015.4
20200220232025 78 165 0.0 3.0 0.00 0.00 0.00 83 1015.6
20200220231125 78 137 1.0 3.0 0.00 0.00 0.00 84 1015.6
20200220230225 78 135 3.0 7.0 0.00 0.00 0.00 84 1015.5
20200220225325 78 136 5.0 9.0 0.00 0.00 0.00 84 1015.4
20200220224425 78 137 7.0 10.0 0.00 0.00 0.00 84 1015.4
20200220223525 78 140 6.0 10.0 0.00 0.00 0.00 84 1015.3
20200220222625 78 142 8.0 12.0 0.00 0.00 0.00 84 1015.2
20200220221725 78 143 7.0 12.0 0.00 0.00 0.00 84 1015.3
20200220220825 78 139 7.0 13.0 0.00 0.00 0.00 83 1015.2
20200220215925 79 142 8.0 12.0 0.00 0.00 0.00 83 1015.3
20200220215025 79 142 8.0 14.0 0.00 0.00 0.00 83 1015.3
20200220214125 79 140 8.0 11.0 0.00 0.00 0.00 82 1015.3
20200220213225 79 139 8.0 12.0 0.00 0.00 0.00 82 1015.4
20200220212325 79 138 7.0 13.0 0.00 0.00 0.00 82 1015.5
20200220211425 79 136 7.0 12.0 0.00 0.00 0.00 82 1015.5
20200220210525 79 134 8.0 12.0 0.00 0.00 0.00 81 1015.6
20200220205625 79 137 7.0 11.0 0.00 0.00 0.00 80 1015.6
20200220204725 80 138 6.0 12.0 0.00 0.00 0.00 79 1015.8
20200220203825 80 140 5.0 9.0 0.00 0.00 0.00 78 1016.0
20200220202925 81 138 6.0 11.0 0.00 0.00 0.00 77 1016.0
20200220202025 81 134 6.0 9.0 0.00 0.00 0.00 77 1016.1
20200220201125 81 130 5.0 10.0 0.00 0.00 0.00 78 1016.2
20200220200225 80 130 4.0 7.0 0.00 0.00 0.00 80 1016.2
20200220195325 80 137 1.0 5.0 0.00 0.00 0.00 81 1016.5
20200220194425 80 136 2.0 5.0 0.00 0.00 0.00 82 1016.6
20200220193525 79 127 3.0 6.0 0.00 0.00 0.00 81 1016.6
20200220192625 80 124 2.0 4.0 0.00 0.00 0.00 82 1016.6
20200220191725 79 118 3.0 7.0 0.00 0.00 0.00 82 1016.6
20200220190825 80 107 3.0 7.0 0.00 0.00 0.00 80 1016.7
20200220185925 80 80 2.0 7.0 0.00 0.00 0.00 81 1016.9
20200220185025 79 97 3.0 8.0 0.00 0.00 0.00 82 1017.1
20200220184125 79 60 3.0 7.0 0.00 0.00 0.00 81 1017.5
20200220183225 80 53 3.0 8.0 0.00 0.00 0.00 80 1017.6
20200220182325 80 101 3.0 8.0 0.00 0.00 0.00 79 1017.6
20200220181425 81 87 4.0 8.0 0.00 0.00 0.00 77 1017.7
20200220180525 82 54 5.0 11.0 0.00 0.00 0.00 75 1018.1
20200220175625 83 49 4.0 10.0 0.00 0.00 0.00 76 1018.1
20200220174725 82 42 4.0 9.0 0.00 0.00 0.00 76 1018.3
20200220173825 83 31 4.0 10.0 0.00 0.00 0.00 75 1018.4
20200220172925 83 104 5.0 9.0 0.00 0.00 0.00 75 1018.4
20200220172025 83 89 4.0 9.0 0.00 0.00 0.00 77 1018.5
20200220171125 83 63 4.0 8.0 0.00 0.00 0.00 75 1018.8
20200220170225 83 56 5.0 10.0 0.00 0.00 0.00 76 1018.8
20200220165325 83 56 5.0 10.0 0.00 0.00 0.00 75 1019.0
20200220164425 84 54 3.0 9.0 0.00 0.00 0.00 75 1019.3
20200220163525 83 42 4.0 9.0 0.00 0.00 0.00 75 1019.6
20200220162625 83 85 4.0 8.0 0.00 0.00 0.00 74 1019.7
20200220161725 83 101 3.0 8.0 0.00 0.00 0.00 73 1019.7
20200220160825 83 109 4.0 9.0 0.00 0.00 0.00 74 1019.8
20200220155925 83 103 4.0 8.0 0.00 0.00 0.00 74 1019.9
20200220155025 84 105 3.0 8.0 0.00 0.00 0.00 71 1020.0
20200220154125 84 120 2.0 5.0 0.00 0.00 0.00 72 1020.2
20200220153225 83 119 2.0 5.0 0.00 0.00 0.00 73 1020.2
20200220152325 83 118 3.0 7.0 0.00 0.00 0.00 72 1020.3
20200220151425 83 105 2.0 4.0 0.00 0.00 0.00 75 1020.3
20200220150525 82 97 2.0 7.0 0.00 0.00 0.00 74 1020.3
20200220145624 82 118 3.0 7.0 0.00 0.00 0.00 76 1020.4
20200220144725 82 126 1.0 4.0 0.00 0.00 0.00 77 1020.4
20200220143824 80 97 2.0 4.0 0.00 0.00 0.00 78 1020.4
20200220142925 80 68 1.0 3.0 0.00 0.00 0.00 80 1020.3
20200220142025 79 43 2.0 8.0 0.00 0.00 0.00 81 1020.4
20200220141125 79 31 3.0 5.0 0.00 0.00 0.00 80 1020.4
20200220140224 80 348 2.0 5.0 0.00 0.00 0.00 81 1020.3
20200220135325 79 341 1.0 4.0 0.00 0.00 0.00 82 1020.2
20200220134425 78 342 2.0 5.0 0.00 0.00 0.00 83 1020.2
20200220133525 77 342 2.0 4.0 0.00 0.00 0.00 86 1020.0
20200220132625 76 344 2.0 4.0 0.00 0.00 0.00 88 1020.0
20200220131725 75 349 2.0 4.0 0.00 0.00 0.00 90 1019.8
20200220130824 74 351 2.0 4.0 0.00 0.00 0.00 91 1019.8
20200220125924 74 341 3.0 5.0 0.00 0.00 0.00 93 1019.8
20200220125025 73 115 2.0 4.0 0.00 0.00 0.00 93 1019.6
20200220124125 72 122 1.0 3.0 0.00 0.00 0.00 93 1019.7
20200220123224 72 123 1.0 3.0 0.00 0.00 0.00 93 1019.6
20200220122325 72 0 0.0 0.0 0.00 0.00 0.00 92 1019.6
20200220121424 72 123 0.0 2.0 0.00 0.00 0.00 92 1019.6
20200220120525 72 123 0.0 3.0 0.00 0.00 0.00 92 1019.6
20200220115624 72 0 0.0 0.0 0.00 0.00 0.00 92 1019.5
20200220114725 72 0 0.0 0.0 0.00 0.00 0.00 92 1019.5
20200220113824 72 0 0.0 0.0 0.00 0.00 0.00 92 1019.5
20200220112924 72 0 0.0 0.0 0.00 0.00 0.00 92 1019.4